Time;durP1;ratioP1;P1;durP2;ratioP2;P2;SDS_P1;SDS_P2;PMS_P1;PMS_P2;Temp;Humidity;BMP_temperature;BMP_pressure;BME280_temperature;BME280_humidity;BME280_pressure;Samples;Min_cycle;Max_cycle;Signal;HPM_P1;HPM_P2
2023/05/18 00:04:12;;;;;;;9.60;2.10;;;;;;;7.65;75.49;101504.31;218526;1286;138837;-88
2023/05/18 00:09:12;;;;;;;9.00;3.10;;;;;;;7.59;75.63;101509.06;217989;1288;138656;-88
2023/05/18 00:14:13;;;;;;;13.30;3.00;;;;;;;7.53;75.69;101516.77;218560;1286;138613;-88
2023/05/18 00:19:14;;;;;;;9.30;2.90;;;;;;;7.47;75.56;101515.48;217961;1287;140477;-89
2023/05/18 00:24:15;;;;;;;12.50;2.40;;;;;;;7.41;75.86;101509.45;218587;1286;96379;-90
2023/05/18 00:29:16;;;;;;;8.50;1.90;;;;;;;7.35;75.94;101510.44;217996;1287;138521;-89
2023/05/18 00:34:16;;;;;;;10.90;2.40;;;;;;;7.28;75.98;101509.45;218166;1288;138292;-89
2023/05/18 00:39:17;;;;;;;9.60;2.50;;;;;;;7.18;76.24;101495.34;217725;1287;139162;-89
2023/05/18 00:44:17;;;;;;;9.70;2.30;;;;;;;7.12;76.09;101495.79;218335;1286;138534;-89
2023/05/18 00:49:18;;;;;;;10.30;2.90;;;;;;;7.05;76.49;101488.37;215996;1288;140002;-90
2023/05/18 00:54:18;;;;;;;11.30;2.20;;;;;;;6.95;76.75;101482.39;218494;1288;96362;-89
2023/05/18 00:59:19;;;;;;;9.50;2.50;;;;;;;6.83;76.91;101482.46;217835;1288;138598;-89
2023/05/18 01:04:20;;;;;;;9.50;2.20;;;;;;;6.73;76.99;101477.30;218565;1288;138207;-89
2023/05/18 01:09:21;;;;;;;7.80;3.10;;;;;;;6.63;77.08;101481.73;217761;1286;139006;-89
2023/05/18 01:14:48;;;;;;;11.40;2.40;;;;;;;6.53;77.36;101489.63;218244;1288;138548;-89
2023/05/18 01:20:09;;;;;;;7.00;1.80;;;;;;;6.42;77.55;101504.87;217919;1286;138932;-90
2023/05/18 01:25:33;;;;;;;10.50;2.20;;;;;;;6.32;77.90;101510.63;218470;1288;138543;-91
2023/05/18 01:30:38;;;;;;;6.70;2.30;;;;;;;6.20;78.45;101517.35;217732;1288;138801;-89
2023/05/18 01:35:48;;;;;;;7.00;2.90;;;;;;;6.10;78.86;101522.30;218354;1289;106607;-89
2023/05/18 01:40:58;;;;;;;10.00;4.00;;;;;;;5.99;79.69;101529.66;217731;1288;138713;-89
2023/05/18 01:46:14;;;;;;;8.50;3.10;;;;;;;5.87;80.19;101533.36;218308;1288;139302;-91
2023/05/18 01:51:19;;;;;;;7.90;2.30;;;;;;;5.80;80.83;101549.73;217785;1286;138846;-90
2023/05/18 01:56:20;;;;;;;9.50;2.60;;;;;;;5.70;81.14;101555.81;218279;1288;138463;-90
2023/05/18 02:01:22;;;;;;;10.50;2.50;;;;;;;5.63;81.18;101552.33;217965;1288;138711;-89
2023/05/18 02:06:23;;;;;;;8.30;2.70;;;;;;;5.56;81.07;101549.15;218538;1288;139117;-88
2023/05/18 02:11:25;;;;;;;8.60;2.50;;;;;;;5.48;81.62;101547.29;217897;1286;138627;-90
2023/05/18 02:16:25;;;;;;;13.60;2.50;;;;;;;5.39;81.70;101550.05;218458;1287;138456;-90
2023/05/18 02:21:26;;;;;;;7.50;2.60;;;;;;;5.31;81.99;101550.43;217886;1287;138763;-91
2023/05/18 02:26:27;;;;;;;9.80;1.70;;;;;;;5.22;81.67;101555.88;218399;1286;138582;-90
2023/05/18 02:31:28;;;;;;;10.00;2.60;;;;;;;5.13;81.87;101557.86;216472;1288;139555;-90
2023/05/18 02:36:38;;;;;;;9.70;2.20;;;;;;;5.04;82.23;101562.05;217861;1286;138884;-89
2023/05/18 02:41:39;;;;;;;13.40;2.50;;;;;;;4.94;82.62;101556.02;217648;1289;255031;-90
2023/05/18 02:46:40;;;;;;;9.30;2.90;;;;;;;4.84;82.94;101555.95;218290;1288;138988;-90
2023/05/18 02:51:41;;;;;;;8.60;2.80;;;;;;;4.76;82.74;101564.83;217758;1289;138761;-91
2023/05/18 02:56:41;;;;;;;9.00;3.30;;;;;;;4.71;82.77;101570.02;218149;1286;138493;-90
2023/05/18 03:01:42;;;;;;;9.10;2.80;;;;;;;4.66;83.15;101574.25;217943;1289;138411;-90
2023/05/18 03:06:45;;;;;;;6.50;1.90;;;;;;;4.55;83.52;101575.92;218286;1287;138567;-90
2023/05/18 03:11:46;;;;;;;10.10;3.30;;;;;;;4.47;83.60;101578.85;217871;1286;138580;-91
2023/05/18 03:16:46;;;;;;;12.40;2.70;;;;;;;4.40;84.11;101585.71;218288;1286;138669;-90
2023/05/18 19:35:45;;;;;;;2.90;1.20;;;;;;;13.29;55.37;101621.48;216909;1288;97968;-92
2023/05/18 19:41:06;;;;;;;4.70;1.30;;;;;;;13.13;55.71;101621.02;216335;1288;138130;-89
2023/05/18 19:46:07;;;;;;;3.90;1.50;;;;;;;12.97;56.77;101626.52;216906;1288;137995;-92
2023/05/18 19:51:07;;;;;;;5.80;1.80;;;;;;;12.81;57.18;101623.65;216198;1288;138259;-93
2023/05/18 19:56:12;;;;;;;4.80;2.00;;;;;;;12.66;57.53;101626.24;216660;1288;138112;-92
2023/05/18 20:01:13;;;;;;;3.90;1.70;;;;;;;12.52;57.97;101631.04;216403;1292;138280;-92
2023/05/18 20:06:14;;;;;;;4.80;1.70;;;;;;;12.40;58.56;101635.27;216918;1289;137997;-94
2023/05/18 20:11:14;;;;;;;4.60;1.60;;;;;;;12.31;58.63;101635.92;216118;1288;138074;-91
2023/05/18 20:16:18;;;;;;;3.10;1.30;;;;;;;12.23;58.83;101641.35;216635;1288;138086;-91
2023/05/18 20:21:28;;;;;;;6.40;1.90;;;;;;;12.18;59.42;101648.55;216289;1292;138227;-91
2023/05/18 20:26:28;;;;;;;3.80;1.70;;;;;;;12.12;59.76;101650.02;216921;1288;136962;-91
2023/05/18 20:31:30;;;;;;;4.50;1.60;;;;;;;12.05;60.31;101658.58;216703;1287;137958;-90
2023/05/18 20:36:31;;;;;;;4.30;1.50;;;;;;;11.96;60.35;101658.58;216881;1288;137910;-93
2023/05/18 20:41:49;;;;;;;4.40;1.70;;;;;;;11.87;60.66;101655.44;216428;1288;138310;-93
2023/05/18 20:46:51;;;;;;;4.60;1.70;;;;;;;11.79;61.51;101657.69;216889;1292;138054;-93
2023/05/18 20:51:57;;;;;;;5.40;2.20;;;;;;;11.71;62.21;101664.49;216344;1288;138043;-92
2023/05/18 20:56:59;;;;;;;5.50;2.00;;;;;;;11.61;62.54;101670.67;216904;1288;136984;-94
2023/05/18 21:07:42;;;;;;;8.10;3.00;;;;;;;11.45;64.31;101690.46;215851;1294;138176;-92
2023/05/18 21:12:44;;;;;;;8.70;2.50;;;;;;;11.37;64.83;101689.84;216414;1287;137658;-90
2023/05/18 21:18:02;;;;;;;10.00;3.00;;;;;;;11.27;65.32;101688.23;216867;1289;138516;-90
2023/05/18 21:23:02;;;;;;;7.50;2.50;;;;;;;11.17;66.35;101690.23;216361;1289;138498;-92
2023/05/18 21:28:05;;;;;;;7.50;2.60;;;;;;;11.09;66.78;101687.70;216903;1292;138170;-91
2023/05/18 21:33:05;;;;;;;9.60;3.00;;;;;;;10.99;67.60;101689.75;216436;1292;138191;-92
2023/05/18 21:38:23;;;;;;;7.60;3.10;;;;;;;10.91;68.51;101688.10;216908;1287;138340;-95
2023/05/18 21:43:28;;;;;;;6.90;2.40;;;;;;;10.85;69.23;101695.86;216413;1288;138284;-91
2023/05/18 21:48:28;;;;;;;6.90;2.60;;;;;;;10.77;69.56;101696.02;216941;1288;137835;-93
2023/05/18 21:53:32;;;;;;;8.90;3.20;;;;;;;10.70;70.13;101697.54;216240;1287;139606;-95
2023/05/18 21:58:52;;;;;;;6.40;2.20;;;;;;;10.63;70.62;101699.99;216883;1287;138044;-91
2023/05/18 22:03:53;;;;;;;8.00;2.70;;;;;;;10.56;70.96;101700.70;216379;1288;138300;-92
2023/05/18 22:08:53;;;;;;;7.10;1.90;;;;;;;10.50;70.74;101699.42;216871;1287;138117;-91
2023/05/18 22:13:54;;;;;;;7.00;2.00;;;;;;;10.45;70.88;101699.57;216496;1288;138265;-92
2023/05/18 22:18:54;;;;;;;5.80;1.90;;;;;;;10.41;71.06;101697.73;217067;1288;98569;-93
2023/05/18 22:23:54;;;;;;;7.40;2.00;;;;;;;10.38;71.05;101696.60;216411;1287;137885;-93
2023/05/18 22:28:55;;;;;;;4.40;1.60;;;;;;;10.33;70.91;101696.08;216982;1288;138105;-94
2023/05/18 22:33:55;;;;;;;6.20;1.70;;;;;;;10.30;70.87;101700.58;216451;1288;138088;-93
2023/05/18 22:38:56;;;;;;;5.90;1.90;;;;;;;10.26;71.11;101697.70;216917;1288;138218;-92
2023/05/18 22:43:57;;;;;;;8.00;2.10;;;;;;;10.23;71.19;101700.05;216376;1288;138126;-94
2023/05/18 22:48:57;;;;;;;3.50;1.50;;;;;;;10.21;70.98;101699.83;217024;1288;97850;-92
2023/05/18 22:53:59;;;;;;;6.20;1.90;;;;;;;10.19;70.87;101698.34;216231;1288;137644;-91
2023/05/18 22:59:00;;;;;;;6.80;2.30;;;;;;;10.16;70.85;101700.13;216533;1288;138106;-87
2023/05/18 23:04:00;;;;;;;5.80;2.20;;;;;;;10.13;70.71;101700.64;216880;1287;138566;-94
2023/05/18 23:09:01;;;;;;;9.40;2.30;;;;;;;10.08;70.80;101696.10;216436;1288;138154;-92
2023/05/18 23:14:01;;;;;;;6.60;2.70;;;;;;;10.04;70.71;101694.54;216768;1288;138030;-92
2023/05/18 23:19:02;;;;;;;5.40;1.90;;;;;;;10.00;70.84;101694.05;216564;1288;137821;-87
2023/05/18 23:24:04;;;;;;;9.30;2.10;;;;;;;9.94;70.95;101693.15;216794;1288;138104;-90
2023/05/18 23:29:04;;;;;;;6.60;2.30;;;;;;;9.89;70.97;101693.37;216389;1291;139138;-92
2023/05/18 23:34:05;;;;;;;7.60;2.60;;;;;;;9.85;71.04;101692.75;216979;1288;138901;-94
2023/05/18 23:39:06;;;;;;;9.80;2.20;;;;;;;9.79;70.99;101690.59;216514;1292;138196;-96
2023/05/18 23:44:06;;;;;;;8.50;1.90;;;;;;;9.74;70.93;101693.64;216931;1291;137918;-91
2023/05/18 23:49:07;;;;;;;5.00;1.50;;;;;;;9.69;71.19;101691.95;216588;1288;138381;-94
2023/05/18 23:54:08;;;;;;;5.10;1.70;;;;;;;9.65;71.27;101689.38;216906;1288;138366;-94
2023/05/18 23:59:10;;;;;;;5.30;1.60;;;;;;;9.61;71.30;101692.72;216350;1288;138161;-91
